Here is the Quick Look data you requested

The Data originates at the National Weather Service, and is made available here by the UAlbany Department of Atmospheric and Environmental Sciences

Surface Observations

KCVG 221752Z 31003KT 10SM OVC250 18/06 A3012 RMK AO2 SLP194 T01780056 10178
 20122 56009=
KCVG 221852Z 00000KT 10SM FEW190 OVC250 18/05 A3011 RMK AO2 SLP190 VIRGA SE-S
 T01780050=
KCVG 221952Z VRB03KT 10SM BKN250 OVC300 20/07 A3008 RMK AO2 SLP179 T02000067=
KCVG 222052Z 13004KT 10SM FEW240 BKN300 19/06 A3006 RMK AO2 SLP175 T01890061
 58020=
KCVG 222152Z VRB03KT 10SM FEW240 BKN300 19/07 A3004 RMK AO2 SLP168 T01890067=
KCVG 222252Z 00000KT 10SM FEW230 FEW300 21/06 A3003 RMK AO2 SLP165 T02060061=
KCVG 222352Z 14005KT 10SM FEW230 BKN300 18/08 A3003 RMK AO2 SLP163 T01830078
 10206 20172 56012=
KCVG 230052Z 14004KT 10SM FEW250 BKN300 16/08 A3002 RMK AO2 SLP160 T01560083=
KCVG 230152Z 14003KT 10SM OVC250 14/08 A3002 RMK AO2 SLP161 T01390078=
KCVG 230252Z 00000KT 10SM BKN250 15/08 A3002 RMK AO2 SLP162 T01500078 55001=
KCVG 230352Z 00000KT 10SM OVC250 13/08 A3000 RMK AO2 SLP154 T01330083=
KCVG 230452Z 00000KT 10SM OVC250 14/08 A2999 RMK AO2 SLP150 T01440078 402060083=
KCVG 230552Z 08003KT 10SM OVC250 14/08 A2997 RMK AO2 SLP143 T01390078 10183
 20111 56017=
KCVG 230652Z 11003KT 10SM BKN250 12/09 A2994 RMK AO2 SLP135 T01220089=
KCVG 230752Z 00000KT 10SM OVC250 12/08 A2992 RMK AO2 SLP126 T01220083=
KCVG 230852Z 00000KT 10SM OVC250 12/08 A2990 RMK AO2 SLP121 T01220083 56022=
KCVG 230952Z 13003KT 10SM BKN250 11/08 A2988 RMK AO2 SLP113 T01110083=
KCVG 231052Z 16004KT 10SM SCT110 BKN230 BKN300 11/09 A2990 RMK AO2 SLP118
 T01110089=
KCVG 231152Z 09004KT 10SM FEW120 SCT160 BKN250 BKN300 14/10 A2989 RMK AO2
 SLP116 T01390100 10139 20089 56004=
KCVG 231252Z 08006KT 10SM FEW130 SCT160 BKN300 16/11 A2986 RMK AO2 SLP108 VIRGA
 DSNT NW T01560106=
KCVG 231352Z 09007KT 10SM FEW130 SCT210 BKN300 18/11 A2985 RMK AO2 SLP102
 T01830106=
KCVG 231452Z 13009KT 10SM FEW160 SCT300 18/11 A2983 RMK AO2 SLP097 T01830106
 56018=
KCVG 231552Z 13007KT 10SM FEW150 FEW250 21/11 A2980 RMK AO2 SLP087 T02060111=
KCVG 231652Z 15007KT 10SM FEW140 SCT180 BKN250 22/10 A2978 RMK AO2 SLP078
 T02170100=
KCVG 231752Z 13007KT 070V150 10SM BKN130 BKN250 23/09 A2975 RMK AO2 SLP068
 VIRGA N T02280089 10228 20139 56027=